sensor_id;sensor_type;location;lat;lon;timestamp;pressure;altitude;pressure_sealevel;temperature;humidity
75188;BME280;63762;51.334;22.108;2023-02-28T00:02:20;103135.63;;;1.23;58.30
75188;BME280;63762;51.334;22.108;2023-02-28T00:12:28;103133.01;;;1.11;55.54
75188;BME280;63762;51.334;22.108;2023-02-28T00:22:36;103142.70;;;1.17;57.30
75188;BME280;63762;51.334;22.108;2023-02-28T00:32:42;103145.35;;;1.20;58.06
75188;BME280;63762;51.334;22.108;2023-02-28T00:42:49;103140.06;;;1.14;56.36
75188;BME280;63762;51.334;22.108;2023-02-28T00:52:56;103145.36;;;1.18;55.45
75188;BME280;63762;51.334;22.108;2023-02-28T01:03:03;103146.27;;;1.13;55.89
75188;BME280;63762;51.334;22.108;2023-02-28T01:13:13;103146.29;;;0.92;51.86
75188;BME280;63762;51.334;22.108;2023-02-28T01:23:20;103147.18;;;0.91;53.75
75188;BME280;63762;51.334;22.108;2023-02-28T01:33:25;103143.63;;;0.89;55.76
75188;BME280;63762;51.334;22.108;2023-02-28T01:53:50;103141.03;;;0.71;56.41
75188;BME280;63762;51.334;22.108;2023-02-28T02:03:55;103130.43;;;0.53;55.71
75188;BME280;63762;51.334;22.108;2023-02-28T02:14:07;103150.71;;;0.22;57.88
75188;BME280;63762;51.334;22.108;2023-02-28T02:24:22;103156.90;;;0.26;56.80
75188;BME280;63762;51.334;22.108;2023-02-28T02:44:43;103174.48;;;-0.01;59.87
75188;BME280;63762;51.334;22.108;2023-02-28T02:54:48;103169.21;;;0.03;60.66
75188;BME280;63762;51.334;22.108;2023-02-28T03:04:59;103169.21;;;0.03;60.42
75188;BME280;63762;51.334;22.108;2023-02-28T03:35:31;103179.73;;;-0.13;63.00
75188;BME280;63762;51.334;22.108;2023-02-28T03:45:37;103191.19;;;-0.20;62.20
75188;BME280;63762;51.334;22.108;2023-02-28T03:55:48;103192.91;;;-0.26;63.81
75188;BME280;63762;51.334;22.108;2023-02-28T04:05:53;103198.18;;;-0.35;62.92
75188;BME280;63762;51.334;22.108;2023-02-28T04:15:54;103188.43;;;-0.50;62.00
75188;BME280;63762;51.334;22.108;2023-02-28T04:25:55;103202.45;;;-0.63;62.32
75188;BME280;63762;51.334;22.108;2023-02-28T04:36:04;103191.77;;;-0.78;63.59
75188;BME280;63762;51.334;22.108;2023-02-28T04:46:06;103196.11;;;-0.86;63.58
75188;BME280;63762;51.334;22.108;2023-02-28T04:56:09;103206.62;;;-0.98;64.02
75188;BME280;63762;51.334;22.108;2023-02-28T05:06:13;103195.08;;;-1.09;64.53
75188;BME280;63762;51.334;22.108;2023-02-28T05:16:15;103198.52;;;-1.19;65.21
75188;BME280;63762;51.334;22.108;2023-02-28T05:26:16;103212.56;;;-1.26;65.99
75188;BME280;63762;51.334;22.108;2023-02-28T05:36:17;103217.71;;;-1.39;68.22
75188;BME280;63762;51.334;22.108;2023-02-28T05:46:24;103220.38;;;-1.36;67.51
75188;BME280;63762;51.334;22.108;2023-02-28T05:56:31;103228.41;;;-1.26;68.02
75188;BME280;63762;51.334;22.108;2023-02-28T06:06:38;103235.59;;;-1.07;67.26
75188;BME280;63762;51.334;22.108;2023-02-28T06:16:45;103251.61;;;-0.83;67.31
75188;BME280;63762;51.334;22.108;2023-02-28T06:26:52;103257.98;;;-0.55;67.14
75188;BME280;63762;51.334;22.108;2023-02-28T06:36:59;103274.88;;;-0.34;66.28
75188;BME280;63762;51.334;22.108;2023-02-28T06:47:06;103268.80;;;-0.16;65.33
75188;BME280;63762;51.334;22.108;2023-02-28T06:57:13;103278.59;;;0.11;64.91
75188;BME280;63762;51.334;22.108;2023-02-28T07:07:21;103264.63;;;0.51;63.25
75188;BME280;63762;51.334;22.108;2023-02-28T07:17:28;103276.13;;;0.89;61.61
75188;BME280;63762;51.334;22.108;2023-02-28T07:27:35;103277.00;;;1.30;60.26
75188;BME280;63762;51.334;22.108;2023-02-28T07:37:42;103270.77;;;1.61;58.52
75188;BME280;63762;51.334;22.108;2023-02-28T07:47:49;103275.98;;;1.92;56.72
75188;BME280;63762;51.334;22.108;2023-02-28T07:57:57;103278.42;;;2.39;54.98
75188;BME280;63762;51.334;22.108;2023-02-28T08:08:03;103267.69;;;2.60;52.64
75188;BME280;63762;51.334;22.108;2023-02-28T08:18:10;103267.53;;;2.81;51.41
75188;BME280;63762;51.334;22.108;2023-02-28T08:28:18;103254.81;;;3.19;50.72
75188;BME280;63762;51.334;22.108;2023-02-28T08:38:25;103257.46;;;3.21;47.55
75188;BME280;63762;51.334;22.108;2023-02-28T08:48:34;103264.39;;;3.38;45.10
75188;BME280;63762;51.334;22.108;2023-02-28T08:58:39;103263.52;;;3.36;46.45
75188;BME280;63762;51.334;22.108;2023-02-28T09:08:46;103258.24;;;3.30;47.71
75188;BME280;63762;51.334;22.108;2023-02-28T09:18:53;103252.67;;;3.57;46.55
75188;BME280;63762;51.334;22.108;2023-02-28T09:29:00;103252.86;;;4.15;45.81
75188;BME280;63762;51.334;22.108;2023-02-28T09:39:07;103254.39;;;4.32;46.66
75188;BME280;63762;51.334;22.108;2023-02-28T09:49:22;103257.83;;;5.00;44.20
75188;BME280;63762;51.334;22.108;2023-02-28T10:09:37;103262.63;;;6.21;41.69
75188;BME280;63762;51.334;22.108;2023-02-28T10:30:00;103251.20;;;4.68;41.55
75188;BME280;63762;51.334;22.108;2023-02-28T10:40:02;103231.47;;;4.79;45.60
75188;BME280;63762;51.334;22.108;2023-02-28T11:00:22;103211.54;;;5.95;45.81
75188;BME280;63762;51.334;22.108;2023-02-28T11:10:26;103209.12;;;6.24;40.77
75188;BME280;63762;51.334;22.108;2023-02-28T11:20:31;103196.94;;;6.11;42.53
75188;BME280;63762;51.334;22.108;2023-02-28T11:33:44;103192.86;;;7.06;42.81
75188;BME280;63762;51.334;22.108;2023-02-28T11:54:18;103173.42;;;6.98;41.23
75188;BME280;63762;51.334;22.108;2023-02-28T12:14:42;103164.38;;;7.66;43.90
75188;BME280;63762;51.334;22.108;2023-02-28T12:45:14;103131.92;;;8.06;38.76
75188;BME280;63762;51.334;22.108;2023-02-28T13:26:00;103097.50;;;7.63;38.98
75188;BME280;63762;51.334;22.108;2023-02-28T13:46:18;103083.63;;;5.80;41.83
75188;BME280;63762;51.334;22.108;2023-02-28T14:06:35;103072.52;;;5.58;43.20
75188;BME280;63762;51.334;22.108;2023-02-28T14:16:44;103057.05;;;5.74;43.72
75188;BME280;63762;51.334;22.108;2023-02-28T14:37:00;103048.56;;;5.57;42.89
75188;BME280;63762;51.334;22.108;2023-02-28T14:47:03;103029.80;;;5.98;43.45
75188;BME280;63762;51.334;22.108;2023-02-28T15:07:22;103026.37;;;6.93;39.47
75188;BME280;63762;51.334;22.108;2023-02-28T15:17:29;103019.23;;;6.62;39.05
75188;BME280;63762;51.334;22.108;2023-02-28T15:27:32;103010.98;;;6.37;41.15
75188;BME280;63762;51.334;22.108;2023-02-28T15:37:44;103025.78;;;5.41;42.08
75188;BME280;63762;51.334;22.108;2023-02-28T15:47:46;103015.10;;;4.52;44.67
75188;BME280;63762;51.334;22.108;2023-02-28T15:57:51;103001.52;;;4.17;46.83
75188;BME280;63762;51.334;22.108;2023-02-28T16:07:56;103013.63;;;3.85;47.81
75188;BME280;63762;51.334;22.108;2023-02-28T16:17:58;103019.16;;;3.70;48.95
75188;BME280;63762;51.334;22.108;2023-02-28T16:27:59;103035.46;;;3.49;48.91
75188;BME280;63762;51.334;22.108;2023-02-28T16:38:01;103033.14;;;3.22;49.44
75188;BME280;63762;51.334;22.108;2023-02-28T16:48:02;103055.38;;;3.16;49.55
75188;BME280;63762;51.334;22.108;2023-02-28T16:58:03;103065.30;;;3.02;50.28
75188;BME280;63762;51.334;22.108;2023-02-28T17:08:04;103074.41;;;2.79;50.10
75188;BME280;63762;51.334;22.108;2023-02-28T17:18:08;103080.77;;;2.64;52.76
75188;BME280;63762;51.334;22.108;2023-02-28T17:28:10;103083.63;;;2.40;52.28
75188;BME280;63762;51.334;22.108;2023-02-28T17:38:16;103073.98;;;2.30;52.40
75188;BME280;63762;51.334;22.108;2023-02-28T17:48:18;103063.59;;;2.04;53.20
75188;BME280;63762;51.334;22.108;2023-02-28T17:58:19;103060.96;;;2.00;53.22
75188;BME280;63762;51.334;22.108;2023-02-28T18:08:21;103062.94;;;1.68;54.15
75188;BME280;63762;51.334;22.108;2023-02-28T18:18:22;103059.41;;;1.63;54.23
75188;BME280;63762;51.334;22.108;2023-02-28T18:28:25;103060.31;;;1.62;55.84
75188;BME280;63762;51.334;22.108;2023-02-28T18:38:32;103071.86;;;1.52;55.35
75188;BME280;63762;51.334;22.108;2023-02-28T18:48:39;103067.51;;;1.40;55.41
75188;BME280;63762;51.334;22.108;2023-02-28T18:58:46;103066.70;;;1.28;56.86
75188;BME280;63762;51.334;22.108;2023-02-28T19:08:55;103064.06;;;1.23;57.38
75188;BME280;63762;51.334;22.108;2023-02-28T19:19:00;103039.36;;;1.09;56.47
75188;BME280;63762;51.334;22.108;2023-02-28T19:29:07;103043.82;;;1.00;58.17
75188;BME280;63762;51.334;22.108;2023-02-28T19:39:15;103043.88;;;0.80;59.30
75188;BME280;63762;51.334;22.108;2023-02-28T19:49:22;103039.48;;;0.70;58.42
75188;BME280;63762;51.334;22.108;2023-02-28T19:59:29;103028.05;;;0.55;59.59
75188;BME280;63762;51.334;22.108;2023-02-28T20:09:36;103023.66;;;0.49;59.76
75188;BME280;63762;51.334;22.108;2023-02-28T20:19:43;103027.21;;;0.21;61.88
75188;BME280;63762;51.334;22.108;2023-02-28T20:29:50;103028.99;;;0.13;62.78
75188;BME280;63762;51.334;22.108;2023-02-28T20:39:57;103033.38;;;0.08;63.27
75188;BME280;63762;51.334;22.108;2023-02-28T20:50:06;103033.38;;;0.00;63.65
75188;BME280;63762;51.334;22.108;2023-02-28T21:00:12;103028.09;;;-0.03;63.41
75188;BME280;63762;51.334;22.108;2023-02-28T21:10:20;103019.30;;;-0.02;61.62
75188;BME280;63762;51.334;22.108;2023-02-28T21:20:26;103021.05;;;-0.07;62.24
75188;BME280;63762;51.334;22.108;2023-02-28T21:30:35;103013.99;;;-0.14;61.97
75188;BME280;63762;51.334;22.108;2023-02-28T21:40:40;103032.47;;;-0.32;63.92
75188;BME280;63762;51.334;22.108;2023-02-28T21:50:54;103026.30;;;-0.28;62.63
75188;BME280;63762;51.334;22.108;2023-02-28T22:01:09;103036.84;;;-0.52;64.61
75188;BME280;63762;51.334;22.108;2023-02-28T22:11:11;103035.92;;;-0.66;66.19
75188;BME280;63762;51.334;22.108;2023-02-28T22:21:14;103045.55;;;-0.80;65.89
75188;BME280;63762;51.334;22.108;2023-02-28T22:31:24;103062.32;;;-0.75;66.21
75188;BME280;63762;51.334;22.108;2023-02-28T22:41:26;103051.74;;;-0.75;65.31
75188;BME280;63762;51.334;22.108;2023-02-28T22:51:31;103046.45;;;-0.78;65.25
75188;BME280;63762;51.334;22.108;2023-02-28T23:01:38;103034.01;;;-1.04;65.95
75188;BME280;63762;51.334;22.108;2023-02-28T23:11:47;103035.57;;;-1.38;67.82
75188;BME280;63762;51.334;22.108;2023-02-28T23:21:52;103039.89;;;-1.52;68.87
75188;BME280;63762;51.334;22.108;2023-02-28T23:31:59;103033.86;;;-1.33;67.58
75188;BME280;63762;51.334;22.108;2023-02-28T23:42:06;103025.95;;;-1.30;67.43
75188;BME280;63762;51.334;22.108;2023-02-28T23:52:14;103036.45;;;-1.40;68.29
